createdAt,value
2018-03-23T00:00:33.803Z,0
2018-03-23T00:01:33.527Z,0
2018-03-23T00:02:33.245Z,0
2018-03-23T00:03:33.213Z,0
2018-03-23T00:04:33.534Z,0
2018-03-23T00:05:33.176Z,0
2018-03-23T00:06:33.594Z,0
2018-03-23T00:07:33.442Z,0
2018-03-23T00:08:33.929Z,0
2018-03-23T00:09:33.373Z,0
2018-03-23T00:10:33.617Z,0
2018-03-23T00:11:33.600Z,0
2018-03-23T00:12:33.323Z,0
2018-03-23T00:13:33.823Z,0
2018-03-23T00:14:33.540Z,0
2018-03-23T00:15:33.044Z,0
2018-03-23T00:16:33.772Z,0
2018-03-23T00:17:32.965Z,0
2018-03-23T00:18:32.928Z,0
2018-03-23T00:19:33.468Z,0
2018-03-23T00:20:33.690Z,0
2018-03-23T00:21:32.873Z,0
2018-03-23T00:22:33.696Z,0
2018-03-23T00:23:33.415Z,0
2018-03-23T00:24:33.087Z,0
2018-03-23T00:25:33.603Z,0
2018-03-23T00:26:33.043Z,0
2018-03-23T00:27:33.022Z,0
2018-03-23T00:28:33.006Z,0
2018-03-23T00:29:32.718Z,0
2018-03-23T00:30:32.455Z,0
2018-03-23T00:31:33.028Z,0
2018-03-23T00:32:32.667Z,0
2018-03-23T00:33:32.920Z,0
2018-03-23T00:34:32.661Z,0
2018-03-23T00:35:33.196Z,0
2018-03-23T00:36:32.659Z,0
2018-03-23T00:37:32.831Z,0
2018-03-23T00:38:32.834Z,0
2018-03-23T00:39:33.180Z,0
2018-03-23T00:40:32.915Z,0
2018-03-23T00:41:33.026Z,0
2018-03-23T00:42:33.103Z,0
2018-03-23T00:43:33.243Z,0
2018-03-23T00:44:32.862Z,0
2018-03-23T00:45:33.075Z,0
2018-03-23T00:46:32.707Z,0
2018-03-23T00:47:32.378Z,0
2018-03-23T00:48:32.638Z,0
2018-03-23T00:49:32.347Z,0
2018-03-23T00:50:32.321Z,0
2018-03-23T00:51:32.574Z,0
2018-03-23T00:52:32.277Z,0
2018-03-23T00:53:32.830Z,0
2018-03-23T00:54:31.975Z,0
2018-03-23T00:55:32.225Z,0
2018-03-23T00:56:32.199Z,0
2018-03-23T00:57:32.777Z,0
2018-03-23T00:58:32.696Z,0
2018-03-23T00:59:32.543Z,0
2018-03-23T01:00:32.124Z,0
2018-03-23T01:01:32.418Z,0
2018-03-23T01:02:32.610Z,0
2018-03-23T01:03:32.859Z,0
2018-03-23T01:04:32.574Z,0
2018-03-23T01:05:32.058Z,0
2018-03-23T01:06:32.079Z,0
2018-03-23T01:07:32.586Z,0
2018-03-23T01:08:32.580Z,0
2018-03-23T01:09:32.216Z,0
2018-03-23T01:10:31.919Z,0
2018-03-23T01:11:32.433Z,0
2018-03-23T01:12:32.163Z,0
2018-03-23T01:13:32.402Z,0
2018-03-23T01:14:32.208Z,0
2018-03-23T01:15:32.095Z,0
2018-03-23T01:16:32.572Z,0
2018-03-23T01:17:32.883Z,0
2018-03-23T01:18:31.779Z,0
2018-03-23T01:19:32.133Z,0
2018-03-23T01:20:32.409Z,0
2018-03-23T01:21:32.311Z,0
2018-03-23T01:22:32.022Z,0
2018-03-23T01:23:32.289Z,0
2018-03-23T01:24:31.923Z,0
2018-03-23T01:25:31.925Z,0
2018-03-23T01:26:32.464Z,0
2018-03-23T01:27:32.179Z,0
2018-03-23T01:28:32.173Z,0
2018-03-23T01:29:32.115Z,0
2018-03-23T01:30:31.807Z,0
2018-03-23T01:31:32.059Z,0
2018-03-23T01:32:31.773Z,0
2018-03-23T01:33:31.869Z,0
2018-03-23T01:34:32.024Z,0
2018-03-23T01:35:31.774Z,0
2018-03-23T01:36:31.718Z,0
2018-03-23T01:37:31.942Z,0
2018-03-23T01:38:31.381Z,0
2018-03-23T01:39:31.638Z,0
2018-03-23T01:40:32.178Z,0
2018-03-23T01:41:31.641Z,0
2018-03-23T01:42:31.597Z,0
2018-03-23T01:43:31.374Z,0
2018-03-23T01:44:31.566Z,0
2018-03-23T01:45:31.638Z,0
2018-03-23T01:46:31.244Z,0
2018-03-23T01:47:32.029Z,0
2018-03-23T01:48:31.718Z,0
2018-03-23T01:49:31.170Z,0
2018-03-23T01:50:31.477Z,0
2018-03-23T01:51:31.682Z,0
2018-03-23T01:52:31.811Z,0
2018-03-23T01:53:30.816Z,0
2018-03-23T01:54:31.348Z,0
2018-03-23T01:55:31.321Z,0
2018-03-23T01:56:31.303Z,0
2018-03-23T01:57:31.548Z,0
2018-03-23T01:58:31.518Z,0
2018-03-23T01:59:31.227Z,0
2018-03-23T02:00:31.223Z,0
2018-03-23T02:01:31.749Z,0
2018-03-23T02:02:31.176Z,0
2018-03-23T02:03:31.145Z,0
2018-03-23T02:04:31.181Z,0
2018-03-23T02:05:30.850Z,0
2018-03-23T02:06:31.094Z,0
2018-03-23T02:07:31.086Z,0
2018-03-23T02:08:31.596Z,0
2018-03-23T02:09:31.040Z,0
2018-03-23T02:10:31.303Z,0
2018-03-23T02:11:30.741Z,0
2018-03-23T02:12:30.728Z,0
2018-03-23T02:13:31.527Z,0
2018-03-23T02:14:31.041Z,0
2018-03-23T02:15:31.798Z,0
2018-03-23T02:16:30.790Z,0
2018-03-23T02:17:30.942Z,0
2018-03-23T02:18:31.426Z,0
2018-03-23T02:19:30.941Z,0
2018-03-23T02:20:31.175Z,0
2018-03-23T02:21:30.880Z,0
2018-03-23T02:22:30.532Z,0
2018-03-23T02:23:30.793Z,0
2018-03-23T02:24:30.949Z,0
2018-03-23T02:25:31.017Z,0
2018-03-23T02:26:31.112Z,0
2018-03-23T02:27:30.819Z,0
2018-03-23T02:28:31.201Z,0
2018-03-23T02:29:30.744Z,0
2018-03-23T02:30:31.164Z,0
2018-03-23T02:31:31.422Z,0
2018-03-23T02:32:31.249Z,0
2018-03-23T02:33:30.375Z,0
2018-03-23T02:34:31.062Z,0
2018-03-23T02:35:30.273Z,0
2018-03-23T02:36:30.852Z,0
2018-03-23T02:37:30.485Z,0
2018-03-23T02:38:30.256Z,0
2018-03-23T02:39:30.468Z,0
2018-03-23T02:40:30.722Z,0
2018-03-23T02:41:30.958Z,0
2018-03-23T02:42:30.667Z,0
2018-03-23T02:43:29.840Z,0
2018-03-23T02:44:31.021Z,0
2018-03-23T02:45:30.086Z,0
2018-03-23T02:46:30.939Z,0
2018-03-23T02:47:30.307Z,0
2018-03-23T02:48:30.544Z,0
2018-03-23T02:49:30.060Z,0
2018-03-23T02:50:30.425Z,0
2018-03-23T02:51:30.017Z,0
2018-03-23T02:52:30.717Z,0
2018-03-23T02:53:30.489Z,0
2018-03-23T02:54:30.419Z,0
2018-03-23T02:55:30.662Z,0
2018-03-23T02:56:30.661Z,0
2018-03-23T02:57:30.154Z,0
2018-03-23T02:58:30.326Z,0
2018-03-23T02:59:29.784Z,0
2018-03-23T03:00:29.770Z,0
2018-03-23T03:01:30.400Z,0
2018-03-23T03:02:30.067Z,0
2018-03-23T03:03:30.259Z,0
2018-03-23T03:04:29.987Z,0
2018-03-23T03:05:30.400Z,0
2018-03-23T03:06:29.917Z,0
2018-03-23T03:07:30.494Z,0
2018-03-23T03:08:30.040Z,0
2018-03-23T03:09:30.240Z,0
2018-03-23T03:10:29.661Z,0
2018-03-23T03:11:30.113Z,0
2018-03-23T03:12:30.197Z,0
2018-03-23T03:13:30.049Z,0
2018-03-23T03:14:29.820Z,0
2018-03-23T03:15:29.467Z,0
2018-03-23T03:16:29.708Z,0
2018-03-23T03:17:29.962Z,0
2018-03-23T03:18:29.677Z,0
2018-03-23T03:19:29.438Z,0
2018-03-23T03:20:29.111Z,0
2018-03-23T03:21:29.872Z,0
2018-03-23T03:22:29.353Z,0
2018-03-23T03:23:30.011Z,0
2018-03-23T03:24:29.314Z,0
2018-03-23T03:25:29.562Z,0
2018-03-23T03:26:29.515Z,0
2018-03-23T03:27:29.531Z,0
2018-03-23T03:28:29.652Z,0
2018-03-23T03:29:29.836Z,0
2018-03-23T03:30:29.817Z,0
2018-03-23T03:31:29.831Z,0
2018-03-23T03:32:29.673Z,0
2018-03-23T03:33:28.848Z,0
2018-03-23T03:34:30.016Z,0
2018-03-23T03:35:29.343Z,0
2018-03-23T03:36:29.127Z,0
2018-03-23T03:37:29.580Z,0
2018-03-23T03:38:29.585Z,0
2018-03-23T03:39:29.318Z,0
2018-03-23T03:40:29.320Z,0
2018-03-23T03:41:29.220Z,0
2018-03-23T03:42:28.988Z,0
2018-03-23T03:43:29.524Z,0
2018-03-23T03:44:28.893Z,0
2018-03-23T03:45:29.674Z,0
2018-03-23T03:46:29.384Z,0
2018-03-23T03:47:29.374Z,0
2018-03-23T03:48:29.733Z,0
2018-03-23T03:49:29.335Z,0
2018-03-23T03:50:29.039Z,0
2018-03-23T03:51:29.041Z,0
2018-03-23T03:52:28.736Z,0
2018-03-23T03:53:29.254Z,0
2018-03-23T03:54:29.511Z,0
2018-03-23T03:55:28.691Z,0
2018-03-23T03:56:28.933Z,0
2018-03-23T03:57:29.421Z,0
2018-03-23T03:58:29.386Z,0
2018-03-23T03:59:28.863Z,0
2018-03-23T04:00:28.581Z,0
2018-03-23T04:01:29.093Z,0
2018-03-23T04:02:29.076Z,0
2018-03-23T04:03:28.255Z,0
2018-03-23T04:04:29.044Z,0
2018-03-23T04:05:28.677Z,0
2018-03-23T04:06:29.006Z,0
2018-03-23T04:07:28.974Z,0
2018-03-23T04:08:28.957Z,0
2018-03-23T04:09:29.604Z,0
2018-03-23T04:10:28.704Z,0
2018-03-23T04:11:28.640Z,0
2018-03-23T04:12:29.437Z,0
2018-03-23T04:13:28.330Z,0
2018-03-23T04:14:28.909Z,0
2018-03-23T04:15:29.048Z,0
2018-03-23T04:16:29.240Z,0
2018-03-23T04:17:28.831Z,0
2018-03-23T04:18:28.769Z,0
2018-03-23T04:19:28.754Z,0
2018-03-23T04:20:28.812Z,0
2018-03-23T04:21:28.497Z,0
2018-03-23T04:22:28.477Z,0
2018-03-23T04:23:28.550Z,0
2018-03-23T04:24:28.656Z,0
2018-03-23T04:25:29.231Z,0
2018-03-23T04:26:28.569Z,0
2018-03-23T04:27:28.353Z,0
2018-03-23T04:28:29.243Z,0
2018-03-23T04:29:28.573Z,0
2018-03-23T04:30:28.363Z,0
2018-03-23T04:31:28.978Z,0
2018-03-23T04:32:28.317Z,0
2018-03-23T04:33:28.306Z,0
2018-03-23T04:34:28.262Z,0
2018-03-23T04:35:28.931Z,0
2018-03-23T04:36:28.146Z,0
2018-03-23T04:37:28.675Z,0
2018-03-23T04:38:28.116Z,0
2018-03-23T04:39:28.091Z,0
2018-03-23T04:40:28.069Z,0
2018-03-23T04:41:28.364Z,0
2018-03-23T04:42:28.028Z,0
2018-03-23T04:43:28.288Z,0
2018-03-23T04:44:28.439Z,0
2018-03-23T04:45:28.240Z,0
2018-03-23T04:46:28.004Z,0
2018-03-23T04:47:28.195Z,0
2018-03-23T04:48:27.918Z,0
2018-03-23T04:49:27.906Z,0
2018-03-23T04:50:28.405Z,0
2018-03-23T04:51:27.864Z,0
2018-03-23T04:52:27.833Z,0
2018-03-23T04:53:27.553Z,0
2018-03-23T04:54:27.275Z,0
2018-03-23T04:55:28.051Z,0
2018-03-23T04:56:28.015Z,0
2018-03-23T04:57:27.735Z,0
2018-03-23T04:58:27.713Z,0
2018-03-23T04:59:27.704Z,0
2018-03-23T05:00:27.687Z,0
2018-03-23T05:01:27.391Z,0
2018-03-23T05:02:27.650Z,0
2018-03-23T05:03:27.892Z,0
2018-03-23T05:04:27.075Z,0
2018-03-23T05:05:27.576Z,0
2018-03-23T05:06:27.085Z,0
2018-03-23T05:07:27.544Z,0
2018-03-23T05:08:26.986Z,0
2018-03-23T05:09:27.333Z,0
2018-03-23T05:10:27.512Z,0
2018-03-23T05:11:27.518Z,0
2018-03-23T05:12:27.719Z,0
2018-03-23T05:13:27.491Z,0
2018-03-23T05:14:27.353Z,0
2018-03-23T05:15:27.243Z,0
2018-03-23T05:16:27.815Z,0
2018-03-23T05:17:27.704Z,0
2018-03-23T05:18:27.160Z,0
2018-03-23T05:19:27.897Z,0
2018-03-23T05:20:27.018Z,0
2018-03-23T05:21:27.652Z,0
2018-03-23T05:22:27.256Z,0
2018-03-23T05:23:26.987Z,0
2018-03-23T05:24:27.884Z,0
2018-03-23T05:25:26.938Z,0
2018-03-23T05:26:27.445Z,0
2018-03-23T05:27:27.152Z,0
2018-03-23T05:28:27.280Z,0
2018-03-23T05:29:27.390Z,0
2018-03-23T05:30:27.408Z,0
2018-03-23T05:31:27.070Z,0
2018-03-23T05:32:27.597Z,0
2018-03-23T05:33:27.183Z,0
2018-03-23T05:34:27.024Z,0
2018-03-23T05:35:27.025Z,0
2018-03-23T05:36:26.713Z,0
2018-03-23T05:37:27.545Z,0
2018-03-23T05:38:26.400Z,0
2018-03-23T05:39:27.174Z,0
2018-03-23T05:40:27.506Z,0
2018-03-23T05:41:26.614Z,0
2018-03-23T05:42:27.123Z,0
2018-03-23T05:43:27.371Z,0
2018-03-23T05:44:26.915Z,0
2018-03-23T05:45:27.064Z,0
2018-03-23T05:46:26.635Z,0
2018-03-23T05:47:27.147Z,0
2018-03-23T05:48:26.749Z,0
2018-03-23T05:49:27.314Z,0
2018-03-23T05:50:26.819Z,0
2018-03-23T05:51:27.028Z,0
2018-03-23T05:52:26.982Z,0
2018-03-23T05:53:26.146Z,0
2018-03-23T05:54:26.688Z,0
2018-03-23T05:55:26.871Z,0
2018-03-23T05:56:26.657Z,0
2018-03-23T05:57:26.497Z,0
2018-03-23T05:58:27.115Z,0
2018-03-23T05:59:26.356Z,0
2018-03-23T06:00:27.023Z,0
2018-03-23T06:01:26.242Z,0
2018-03-23T06:02:26.281Z,0
2018-03-23T06:03:26.447Z,0
2018-03-23T06:04:26.970Z,0
2018-03-23T06:05:26.183Z,0
2018-03-23T06:06:26.205Z,0
2018-03-23T06:07:26.360Z,0
2018-03-23T06:08:26.348Z,0
2018-03-23T06:09:26.870Z,0
2018-03-23T06:10:26.572Z,0
2018-03-23T06:11:26.443Z,0
2018-03-23T06:12:26.272Z,0
2018-03-23T06:13:26.269Z,0
2018-03-23T06:14:26.232Z,0
2018-03-23T06:15:26.543Z,0
2018-03-23T06:16:26.459Z,5
2018-03-23T06:17:25.645Z,5
2018-03-23T06:18:26.440Z,5
2018-03-23T06:19:26.166Z,5
2018-03-23T06:20:26.711Z,5
2018-03-23T06:21:26.090Z,5
2018-03-23T06:22:26.241Z,5
2018-03-23T06:23:25.807Z,5
2018-03-23T06:24:26.302Z,5
2018-03-23T06:25:26.279Z,5
2018-03-23T06:26:26.010Z,5
2018-03-23T06:27:26.018Z,5
2018-03-23T06:28:26.493Z,5
2018-03-23T06:29:26.260Z,5
2018-03-23T06:30:25.931Z,5
2018-03-23T06:31:26.195Z,5
2018-03-23T06:32:26.408Z,5
2018-03-23T06:33:25.862Z,5
2018-03-23T06:34:25.590Z,5
2018-03-23T06:35:25.839Z,5
2018-03-23T06:36:26.173Z,5
2018-03-23T06:37:25.838Z,5
2018-03-23T06:38:26.034Z,5
2018-03-23T06:39:25.239Z,5
2018-03-23T06:40:25.760Z,5
2018-03-23T06:41:26.186Z,10
2018-03-23T06:42:25.689Z,5
2018-03-23T06:43:25.719Z,10
2018-03-23T06:44:25.671Z,10
2018-03-23T06:45:25.361Z,10
2018-03-23T06:46:26.138Z,10
2018-03-23T06:47:25.858Z,10
2018-03-23T06:48:25.574Z,5
2018-03-23T06:49:25.273Z,5
2018-03-23T06:50:25.544Z,10
2018-03-23T06:51:25.767Z,10
2018-03-23T06:52:25.750Z,10
2018-03-23T06:53:25.200Z,10
2018-03-23T06:54:25.815Z,10
2018-03-23T06:55:25.431Z,10
2018-03-23T06:56:25.673Z,10
2018-03-23T06:57:25.574Z,10
2018-03-23T06:58:25.382Z,10
2018-03-23T06:59:25.627Z,10
2018-03-23T07:00:25.334Z,10
2018-03-23T07:01:25.578Z,10
2018-03-23T07:02:25.292Z,15
2018-03-23T07:03:25.277Z,15
2018-03-23T07:04:25.637Z,15
2018-03-23T07:05:25.228Z,15
2018-03-23T07:06:25.206Z,15
2018-03-23T07:07:25.194Z,15
2018-03-23T07:08:25.446Z,15
2018-03-23T07:09:25.414Z,15
2018-03-23T07:10:25.395Z,10
2018-03-23T07:11:25.106Z,10
2018-03-23T07:12:25.115Z,10
2018-03-23T07:13:24.818Z,10
2018-03-23T07:14:24.796Z,10
2018-03-23T07:15:24.791Z,10
2018-03-23T07:16:25.649Z,10
2018-03-23T07:17:24.859Z,5
2018-03-23T07:18:24.713Z,5
2018-03-23T07:19:24.958Z,10
2018-03-23T07:20:24.673Z,10
2018-03-23T07:21:24.657Z,15
2018-03-23T07:22:25.168Z,15
2018-03-23T07:23:25.156Z,20
2018-03-23T07:24:25.197Z,20
2018-03-23T07:25:24.591Z,20
2018-03-23T07:26:25.085Z,20
2018-03-23T07:27:24.848Z,20
2018-03-23T07:28:25.049Z,25
2018-03-23T07:29:25.422Z,25
2018-03-23T07:30:24.735Z,25
2018-03-23T07:31:24.988Z,25
2018-03-23T07:32:24.699Z,30
2018-03-23T07:33:24.412Z,30
2018-03-23T07:34:24.920Z,30
2018-03-23T07:35:24.376Z,35
2018-03-23T07:36:24.882Z,30
2018-03-23T07:37:24.340Z,30
2018-03-23T07:38:25.033Z,35
2018-03-23T07:39:24.024Z,35
2018-03-23T07:40:24.804Z,35
2018-03-23T07:41:24.523Z,30
2018-03-23T07:42:24.511Z,30
2018-03-23T07:43:24.480Z,30
2018-03-23T07:44:24.734Z,25
2018-03-23T07:45:24.799Z,25
2018-03-23T07:46:24.696Z,25
2018-03-23T07:47:24.668Z,25
2018-03-23T07:48:24.671Z,25
2018-03-23T07:49:24.095Z,25
2018-03-23T07:50:24.605Z,30
2018-03-23T07:51:24.333Z,30
2018-03-23T07:52:23.777Z,30
2018-03-23T07:53:24.555Z,30
2018-03-23T07:54:24.012Z,30
2018-03-23T07:55:24.259Z,35
2018-03-23T07:56:23.696Z,35
2018-03-23T07:57:24.809Z,40
2018-03-23T07:58:23.923Z,45
2018-03-23T07:59:24.478Z,50
2018-03-23T08:00:24.412Z,55
2018-03-23T08:01:24.132Z,55
2018-03-23T08:02:24.114Z,55
2018-03-23T08:03:24.095Z,50
2018-03-23T08:04:24.344Z,50
2018-03-23T08:05:24.546Z,60
2018-03-23T08:06:24.108Z,80
2018-03-23T08:07:24.015Z,70
2018-03-23T08:08:24.257Z,75
2018-03-23T08:09:23.969Z,75
2018-03-23T08:10:23.476Z,80
2018-03-23T08:11:23.935Z,95
2018-03-23T08:12:24.035Z,80
2018-03-23T08:13:23.974Z,85
2018-03-23T08:14:24.143Z,90
2018-03-23T08:15:24.127Z,90
2018-03-23T08:16:24.104Z,100
2018-03-23T08:17:23.815Z,100
2018-03-23T08:18:23.528Z,105
2018-03-23T08:19:24.170Z,115
2018-03-23T08:20:24.302Z,140
2018-03-23T08:21:23.741Z,145
2018-03-23T08:22:23.984Z,150
2018-03-23T08:23:23.718Z,155
2018-03-23T08:24:23.422Z,155
2018-03-23T08:25:23.956Z,170
2018-03-23T08:26:23.390Z,155
2018-03-23T08:27:23.365Z,165
2018-03-23T08:28:23.345Z,145
2018-03-23T08:29:24.137Z,140
2018-03-23T08:30:24.282Z,115
2018-03-23T08:31:23.555Z,135
2018-03-23T08:32:23.814Z,145
2018-03-23T08:33:23.738Z,150
2018-03-23T08:34:23.242Z,145
2018-03-23T08:35:23.480Z,140
2018-03-23T08:36:22.997Z,140
2018-03-23T08:37:23.717Z,125
2018-03-23T08:38:23.704Z,120
2018-03-23T08:39:23.696Z,135
2018-03-23T08:40:23.824Z,140
2018-03-23T08:41:23.658Z,125
2018-03-23T08:42:23.378Z,125
2018-03-23T08:43:23.544Z,120
2018-03-23T08:44:23.414Z,110
2018-03-23T08:45:23.835Z,125
2018-03-23T08:46:23.028Z,115
2018-03-23T08:47:23.459Z,120
2018-03-23T08:48:23.499Z,130
2018-03-23T08:49:23.228Z,110
2018-03-23T08:50:23.214Z,135
2018-03-23T08:51:23.443Z,165
2018-03-23T08:52:23.696Z,185
2018-03-23T08:53:23.149Z,200
2018-03-23T08:54:23.443Z,205
2018-03-23T08:55:23.371Z,200
2018-03-23T08:56:23.362Z,190
2018-03-23T08:57:23.081Z,180
2018-03-23T08:58:23.067Z,185
2018-03-23T08:59:23.307Z,185
2018-03-23T09:00:23.701Z,185
2018-03-23T09:01:23.003Z,175
2018-03-23T09:02:22.982Z,155
2018-03-23T09:03:22.979Z,140
2018-03-23T09:04:23.216Z,135
2018-03-23T09:05:22.927Z,130
2018-03-23T09:06:22.921Z,120
2018-03-23T09:07:22.894Z,125
2018-03-23T09:08:23.222Z,145
2018-03-23T09:09:23.391Z,185
2018-03-23T09:10:23.111Z,215
2018-03-23T09:11:22.558Z,215
2018-03-23T09:12:22.805Z,210
2018-03-23T09:13:22.951Z,210
2018-03-23T09:14:22.595Z,225
2018-03-23T09:15:23.432Z,235
2018-03-23T09:16:23.257Z,230
2018-03-23T09:17:22.803Z,225
2018-03-23T09:18:22.955Z,225
2018-03-23T09:19:22.511Z,210
2018-03-23T09:20:22.658Z,210
2018-03-23T09:21:22.374Z,200
2018-03-23T09:22:22.619Z,175
2018-03-23T09:23:22.331Z,165
2018-03-23T09:24:22.578Z,125
2018-03-23T09:25:22.828Z,110
2018-03-23T09:26:22.019Z,100
2018-03-23T09:27:22.535Z,95
2018-03-23T09:28:23.037Z,105
2018-03-23T09:29:22.491Z,135
2018-03-23T09:30:22.481Z,155
2018-03-23T09:31:22.484Z,150
2018-03-23T09:32:22.174Z,135
2018-03-23T09:33:22.152Z,115
2018-03-23T09:34:22.675Z,125
2018-03-23T09:35:22.650Z,155
2018-03-23T09:36:22.100Z,155
2018-03-23T09:37:22.746Z,135
2018-03-23T09:38:22.328Z,135
2018-03-23T09:39:22.317Z,180
2018-03-23T09:40:22.561Z,190
2018-03-23T09:41:22.546Z,185
2018-03-23T09:42:22.589Z,165
2018-03-23T09:43:22.520Z,145
2018-03-23T09:44:22.711Z,185
2018-03-23T09:45:22.220Z,190
2018-03-23T09:46:22.721Z,190
2018-03-23T09:47:22.446Z,200
2018-03-23T09:48:22.152Z,205
2018-03-23T09:49:22.242Z,205
2018-03-23T09:50:22.524Z,210
2018-03-23T09:51:22.361Z,195
2018-03-23T09:52:22.620Z,185
2018-03-23T09:53:22.704Z,175
2018-03-23T09:54:22.462Z,155
2018-03-23T09:55:22.308Z,160
2018-03-23T09:56:22.367Z,155
2018-03-23T09:57:22.262Z,145
2018-03-23T09:58:21.984Z,150
2018-03-23T09:59:21.980Z,180
2018-03-23T10:00:21.993Z,165
2018-03-23T10:01:22.099Z,125
2018-03-23T10:02:22.280Z,125
2018-03-23T10:03:22.494Z,100
2018-03-23T10:04:21.967Z,90
2018-03-23T10:05:21.961Z,115
2018-03-23T10:06:22.182Z,135
2018-03-23T10:07:22.213Z,120
2018-03-23T10:08:22.238Z,130
2018-03-23T10:09:21.776Z,135
2018-03-23T10:10:22.038Z,130
2018-03-23T10:11:21.786Z,100
2018-03-23T10:12:22.062Z,90
2018-03-23T10:13:22.106Z,90
2018-03-23T10:14:22.134Z,130
2018-03-23T10:15:21.841Z,190
2018-03-23T10:16:21.754Z,210
2018-03-23T10:17:21.959Z,220
2018-03-23T10:18:21.393Z,230
2018-03-23T10:19:21.935Z,215
2018-03-23T10:20:21.393Z,205
2018-03-23T10:21:21.984Z,200
2018-03-23T10:22:21.954Z,180
2018-03-23T10:23:21.921Z,160
2018-03-23T10:24:22.071Z,195
2018-03-23T10:25:21.640Z,195
2018-03-23T10:26:21.785Z,195
2018-03-23T10:27:21.784Z,205
2018-03-23T10:28:21.703Z,210
2018-03-23T10:29:22.108Z,225
2018-03-23T10:30:21.764Z,235
2018-03-23T10:31:21.493Z,250
2018-03-23T10:32:21.154Z,265
2018-03-23T10:33:21.195Z,270
2018-03-23T10:34:21.651Z,260
2018-03-23T10:35:21.683Z,270
2018-03-23T10:36:21.641Z,300
2018-03-23T10:37:21.690Z,310
2018-03-23T10:38:21.593Z,320
2018-03-23T10:39:21.268Z,315
2018-03-23T10:40:21.211Z,310
2018-03-23T10:41:21.005Z,310
2018-03-23T10:42:21.047Z,315
2018-03-23T10:43:21.637Z,310
2018-03-23T10:44:21.173Z,345
2018-03-23T10:45:20.954Z,415
2018-03-23T10:46:21.130Z,435
2018-03-23T10:47:21.576Z,440
2018-03-23T10:48:21.130Z,510
2018-03-23T10:49:21.512Z,720
2018-03-23T10:50:20.602Z,780
2018-03-23T10:51:21.414Z,695
2018-03-23T10:52:20.825Z,690
2018-03-23T10:53:21.294Z,780
2018-03-23T10:54:20.939Z,695
2018-03-23T10:55:21.131Z,530
2018-03-23T10:56:21.298Z,540
2018-03-23T10:57:21.270Z,590
2018-03-23T10:58:20.722Z,575
2018-03-23T10:59:21.343Z,475
2018-03-23T11:00:21.412Z,440
2018-03-23T11:01:21.515Z,370
2018-03-23T11:02:21.236Z,360
2018-03-23T11:03:21.135Z,325
2018-03-23T11:04:20.787Z,320
2018-03-23T11:05:20.689Z,385
2018-03-23T11:06:21.024Z,405
2018-03-23T11:07:20.827Z,410
2018-03-23T11:08:20.805Z,400
2018-03-23T11:09:20.555Z,345
2018-03-23T11:10:20.909Z,310
2018-03-23T11:11:20.838Z,285
2018-03-23T11:12:20.807Z,260
2018-03-23T11:13:20.723Z,290
2018-03-23T11:14:21.020Z,330
2018-03-23T11:15:21.011Z,375
2018-03-23T11:16:20.993Z,440
2018-03-23T11:17:20.728Z,450
2018-03-23T11:18:21.033Z,430
2018-03-23T11:19:20.370Z,385
2018-03-23T11:20:20.364Z,355
2018-03-23T11:21:20.074Z,320
2018-03-23T11:22:20.593Z,280
2018-03-23T11:23:21.102Z,260
2018-03-23T11:24:20.559Z,245
2018-03-23T11:25:20.541Z,250
2018-03-23T11:26:20.529Z,235
2018-03-23T11:27:20.773Z,220
2018-03-23T11:28:20.233Z,215
2018-03-23T11:29:20.214Z,230
2018-03-23T11:30:20.886Z,235
2018-03-23T11:31:20.455Z,240
2018-03-23T11:32:20.176Z,225
2018-03-23T11:33:20.158Z,210
2018-03-23T11:34:20.693Z,230
2018-03-23T11:35:20.394Z,235
2018-03-23T11:36:20.114Z,235
2018-03-23T11:37:20.109Z,240
2018-03-23T11:38:20.615Z,235
2018-03-23T11:39:20.333Z,230
2018-03-23T11:40:20.314Z,215
2018-03-23T11:41:20.568Z,205
2018-03-23T11:42:20.018Z,210
2018-03-23T11:43:20.267Z,215
2018-03-23T11:44:19.787Z,220
2018-03-23T11:45:19.706Z,215
2018-03-23T11:46:20.226Z,190
2018-03-23T11:47:19.668Z,170
2018-03-23T11:48:20.192Z,155
2018-03-23T11:49:19.902Z,150
2018-03-23T11:50:19.897Z,150
2018-03-23T11:51:20.405Z,145
2018-03-23T11:52:19.591Z,140
2018-03-23T11:53:20.103Z,140
2018-03-23T11:54:20.354Z,145
2018-03-23T11:55:19.810Z,145
2018-03-23T11:56:20.058Z,135
2018-03-23T11:57:20.578Z,125
2018-03-23T11:58:20.766Z,120
2018-03-23T11:59:20.278Z,120
2018-03-23T12:00:20.273Z,115
2018-03-23T12:01:19.724Z,110
2018-03-23T12:02:19.696Z,110
2018-03-23T12:03:20.216Z,115
2018-03-23T12:04:20.190Z,110
2018-03-23T12:05:19.647Z,110
2018-03-23T12:06:19.631Z,110
2018-03-23T12:07:19.873Z,105
2018-03-23T12:08:20.128Z,105
2018-03-23T12:09:19.576Z,105
2018-03-23T12:10:19.567Z,105
2018-03-23T12:11:19.820Z,105
2018-03-23T12:12:20.064Z,110
2018-03-23T12:13:19.776Z,110
2018-03-23T12:14:19.845Z,110
2018-03-23T12:15:20.274Z,105
2018-03-23T12:16:19.990Z,105
2018-03-23T12:17:19.977Z,105
2018-03-23T12:18:19.420Z,110
2018-03-23T12:19:19.967Z,120
2018-03-23T12:20:19.397Z,120
2018-03-23T12:21:19.928Z,115
2018-03-23T12:22:20.141Z,115
2018-03-23T12:23:19.338Z,110
2018-03-23T12:24:19.853Z,105
2018-03-23T12:25:19.307Z,105
2018-03-23T12:26:19.555Z,105
2018-03-23T12:27:19.275Z,100
2018-03-23T12:28:19.255Z,100
2018-03-23T12:29:19.235Z,95
2018-03-23T12:30:19.484Z,95
2018-03-23T12:31:19.477Z,95
2018-03-23T12:32:19.477Z,100
2018-03-23T12:33:19.705Z,95
2018-03-23T12:34:19.475Z,90
2018-03-23T12:35:19.664Z,90
2018-03-23T12:36:19.378Z,90
2018-03-23T12:37:19.637Z,85
2018-03-23T12:38:19.353Z,85
2018-03-23T12:39:19.346Z,90
2018-03-23T12:40:19.331Z,90
2018-03-23T12:41:19.302Z,85
2018-03-23T12:42:19.013Z,85
2018-03-23T12:43:19.797Z,85
2018-03-23T12:44:18.979Z,85
2018-03-23T12:45:19.762Z,85
2018-03-23T12:46:18.946Z,85
2018-03-23T12:47:18.925Z,80
2018-03-23T12:48:18.910Z,80
2018-03-23T12:49:19.164Z,80
2018-03-23T12:50:19.409Z,75
2018-03-23T12:51:19.387Z,75
2018-03-23T12:52:18.845Z,75
2018-03-23T12:53:19.090Z,75
2018-03-23T12:54:19.072Z,75
2018-03-23T12:55:19.055Z,70
2018-03-23T12:56:19.817Z,70
2018-03-23T12:57:19.306Z,65
2018-03-23T12:58:19.259Z,70
2018-03-23T12:59:19.004Z,70
2018-03-23T13:00:18.971Z,70
2018-03-23T13:01:19.491Z,70
2018-03-23T13:02:19.470Z,70
2018-03-23T13:03:18.920Z,70
2018-03-23T13:04:18.907Z,65
2018-03-23T13:05:18.882Z,65
2018-03-23T13:06:18.871Z,65
2018-03-23T13:07:19.123Z,65
2018-03-23T13:08:18.830Z,60
2018-03-23T13:09:19.073Z,60
2018-03-23T13:10:18.802Z,60
2018-03-23T13:11:18.781Z,60
2018-03-23T13:12:18.754Z,60
2018-03-23T13:13:18.745Z,65
2018-03-23T13:14:18.718Z,65
2018-03-23T13:15:18.966Z,70
2018-03-23T13:16:18.426Z,75
2018-03-23T13:17:18.683Z,70
2018-03-23T13:18:18.388Z,70
2018-03-23T13:19:18.636Z,70
2018-03-23T13:20:18.612Z,70
2018-03-23T13:21:18.597Z,70
2018-03-23T13:22:18.054Z,70
2018-03-23T13:23:18.569Z,70
2018-03-23T13:24:19.079Z,75
2018-03-23T13:25:18.527Z,80
2018-03-23T13:26:19.044Z,75
2018-03-23T13:27:18.510Z,75
2018-03-23T13:28:18.214Z,75
2018-03-23T13:29:18.724Z,80
2018-03-23T13:30:18.753Z,85
2018-03-23T13:31:18.416Z,80
2018-03-23T13:32:18.402Z,80
2018-03-23T13:33:18.121Z,80
2018-03-23T13:34:18.377Z,75
2018-03-23T13:35:17.822Z,85
2018-03-23T13:36:18.351Z,85
2018-03-23T13:37:18.583Z,85
2018-03-23T13:38:18.032Z,80
2018-03-23T13:39:18.542Z,75
2018-03-23T13:40:18.047Z,75
2018-03-23T13:41:18.515Z,75
2018-03-23T13:42:18.230Z,75
2018-03-23T13:43:18.487Z,70
2018-03-23T13:44:18.461Z,75
2018-03-23T13:45:17.912Z,70
2018-03-23T13:46:18.415Z,70
2018-03-23T13:47:18.411Z,70
2018-03-23T13:48:18.117Z,70
2018-03-23T13:49:18.102Z,70
2018-03-23T13:50:18.790Z,65
2018-03-23T13:51:18.059Z,65
2018-03-23T13:52:18.059Z,65
2018-03-23T13:53:18.027Z,65
2018-03-23T13:54:18.354Z,70
2018-03-23T13:55:17.999Z,75
2018-03-23T13:56:18.412Z,85
2018-03-23T13:57:17.696Z,95
2018-03-23T13:58:18.410Z,95
2018-03-23T13:59:18.463Z,95
2018-03-23T14:00:17.934Z,95
2018-03-23T14:01:17.632Z,90
2018-03-23T14:02:17.883Z,85
2018-03-23T14:03:17.902Z,85
2018-03-23T14:04:17.838Z,90
2018-03-23T14:05:17.829Z,90
2018-03-23T14:06:18.384Z,85
2018-03-23T14:07:17.521Z,80
2018-03-23T14:08:18.037Z,80
2018-03-23T14:09:18.023Z,90
2018-03-23T14:10:18.051Z,95
2018-03-23T14:11:17.187Z,100
2018-03-23T14:12:17.694Z,95
2018-03-23T14:13:17.413Z,95
2018-03-23T14:14:17.653Z,90
2018-03-23T14:15:17.907Z,90
2018-03-23T14:16:17.355Z,90
2018-03-23T14:17:17.347Z,85
2018-03-23T14:18:17.596Z,80
2018-03-23T14:19:17.568Z,75
2018-03-23T14:20:17.558Z,90
2018-03-23T14:21:17.804Z,85